sensor_id;sensor_type;location;lat;lon;timestamp;P1;durP1;ratioP1;P2;durP2;ratioP2
56291;SDS011;54008;53.606;9.462;2022-09-09T00:00:43;130.75;;;33.80;;
56291;SDS011;54008;53.606;9.462;2022-09-09T00:05:52;127.60;;;35.22;;
56291;SDS011;54008;53.606;9.462;2022-09-09T00:08:19;119.75;;;32.60;;
56291;SDS011;54008;53.606;9.462;2022-09-09T00:10:48;215.65;;;38.67;;
56291;SDS011;54008;53.606;9.462;2022-09-09T00:13:22;81.97;;;31.25;;
56291;SDS011;54008;53.606;9.462;2022-09-09T00:16:28;58.35;;;32.17;;
56291;SDS011;54008;53.606;9.462;2022-09-09T00:21:21;76.18;;;32.95;;
56291;SDS011;54008;53.606;9.462;2022-09-09T00:23:58;51.28;;;29.55;;
56291;SDS011;54008;53.606;9.462;2022-09-09T00:29:20;84.05;;;33.35;;
56291;SDS011;54008;53.606;9.462;2022-09-09T00:32:14;50.95;;;29.48;;
56291;SDS011;54008;53.606;9.462;2022-09-09T00:34:52;70.97;;;32.65;;
56291;SDS011;54008;53.606;9.462;2022-09-09T00:37:21;135.07;;;36.28;;
56291;SDS011;54008;53.606;9.462;2022-09-09T00:39:50;54.47;;;30.90;;
56291;SDS011;54008;53.606;9.462;2022-09-09T00:42:31;74.13;;;31.55;;
56291;SDS011;54008;53.606;9.462;2022-09-09T00:47:43;49.80;;;29.85;;
56291;SDS011;54008;53.606;9.462;2022-09-09T00:56:16;103.60;;;32.58;;
56291;SDS011;54008;53.606;9.462;2022-09-09T01:01:52;70.00;;;30.60;;
56291;SDS011;54008;53.606;9.462;2022-09-09T01:04:21;45.72;;;28.05;;
56291;SDS011;54008;53.606;9.462;2022-09-09T01:06:57;41.45;;;25.80;;
56291;SDS011;54008;53.606;9.462;2022-09-09T01:09:38;43.08;;;26.50;;
56291;SDS011;54008;53.606;9.462;2022-09-09T01:12:17;38.10;;;25.83;;
56291;SDS011;54008;53.606;9.462;2022-09-09T01:20:15;45.47;;;24.05;;
56291;SDS011;54008;53.606;9.462;2022-09-09T01:28:33;103.63;;;30.15;;
56291;SDS011;54008;53.606;9.462;2022-09-09T01:31:02;36.65;;;23.50;;
56291;SDS011;54008;53.606;9.462;2022-09-09T01:33:29;36.97;;;24.77;;
56291;SDS011;54008;53.606;9.462;2022-09-09T01:35:55;42.95;;;25.92;;
56291;SDS011;54008;53.606;9.462;2022-09-09T01:38:26;39.72;;;24.92;;
56291;SDS011;54008;53.606;9.462;2022-09-09T01:40:53;52.00;;;27.23;;
56291;SDS011;54008;53.606;9.462;2022-09-09T01:43:21;34.17;;;21.75;;
56291;SDS011;54008;53.606;9.462;2022-09-09T01:45:49;35.13;;;22.25;;
56291;SDS011;54008;53.606;9.462;2022-09-09T01:50:45;47.33;;;23.48;;
56291;SDS011;54008;53.606;9.462;2022-09-09T01:53:10;35.93;;;21.80;;
56291;SDS011;54008;53.606;9.462;2022-09-09T01:55:37;120.65;;;28.17;;
56291;SDS011;54008;53.606;9.462;2022-09-09T02:01:29;40.43;;;22.50;;
56291;SDS011;54008;53.606;9.462;2022-09-09T02:03:57;35.88;;;22.60;;
56291;SDS011;54008;53.606;9.462;2022-09-09T02:06:36;54.00;;;26.05;;
56291;SDS011;54008;53.606;9.462;2022-09-09T02:09:05;40.28;;;24.67;;
56291;SDS011;54008;53.606;9.462;2022-09-09T02:11:32;42.92;;;25.77;;
56291;SDS011;54008;53.606;9.462;2022-09-09T02:14:00;44.58;;;26.30;;
56291;SDS011;54008;53.606;9.462;2022-09-09T02:19:56;46.72;;;25.73;;
56291;SDS011;54008;53.606;9.462;2022-09-09T02:22:18;39.30;;;24.58;;
56291;SDS011;54008;53.606;9.462;2022-09-09T02:24:47;42.50;;;25.30;;
56291;SDS011;54008;53.606;9.462;2022-09-09T02:27:15;39.38;;;23.58;;
56291;SDS011;54008;53.606;9.462;2022-09-09T02:29:43;40.28;;;24.63;;
56291;SDS011;54008;53.606;9.462;2022-09-09T02:32:13;41.85;;;24.77;;
56291;SDS011;54008;53.606;9.462;2022-09-09T02:34:47;40.47;;;24.58;;
56291;SDS011;54008;53.606;9.462;2022-09-09T02:37:15;37.45;;;24.45;;
56291;SDS011;54008;53.606;9.462;2022-09-09T02:39:43;39.05;;;24.15;;
56291;SDS011;54008;53.606;9.462;2022-09-09T02:42:09;38.63;;;23.80;;
56291;SDS011;54008;53.606;9.462;2022-09-09T02:44:34;40.30;;;24.05;;
56291;SDS011;54008;53.606;9.462;2022-09-09T02:50:24;35.35;;;21.90;;
56291;SDS011;54008;53.606;9.462;2022-09-09T02:52:58;31.20;;;21.35;;
56291;SDS011;54008;53.606;9.462;2022-09-09T02:55:46;33.33;;;21.55;;
56291;SDS011;54008;53.606;9.462;2022-09-09T02:58:16;30.48;;;21.02;;
56291;SDS011;54008;53.606;9.462;2022-09-09T03:00:43;33.10;;;22.55;;
56291;SDS011;54008;53.606;9.462;2022-09-09T03:03:10;65.72;;;24.52;;
56291;SDS011;54008;53.606;9.462;2022-09-09T03:05:36;34.08;;;22.48;;
56291;SDS011;54008;53.606;9.462;2022-09-09T03:08:03;39.10;;;23.30;;
56291;SDS011;54008;53.606;9.462;2022-09-09T03:10:28;56.95;;;26.02;;
56291;SDS011;54008;53.606;9.462;2022-09-09T03:12:53;46.40;;;24.55;;
56291;SDS011;54008;53.606;9.462;2022-09-09T03:15:20;42.35;;;24.25;;
56291;SDS011;54008;53.606;9.462;2022-09-09T03:17:46;49.95;;;25.35;;
56291;SDS011;54008;53.606;9.462;2022-09-09T03:20:12;49.70;;;24.42;;
56291;SDS011;54008;53.606;9.462;2022-09-09T03:22:37;36.88;;;22.83;;
56291;SDS011;54008;53.606;9.462;2022-09-09T03:25:03;58.87;;;24.60;;
56291;SDS011;54008;53.606;9.462;2022-09-09T03:27:29;45.60;;;25.35;;
56291;SDS011;54008;53.606;9.462;2022-09-09T03:29:54;38.50;;;23.42;;
56291;SDS011;54008;53.606;9.462;2022-09-09T03:32:20;39.13;;;22.50;;
56291;SDS011;54008;53.606;9.462;2022-09-09T03:34:47;34.90;;;22.73;;
56291;SDS011;54008;53.606;9.462;2022-09-09T03:37:14;38.85;;;21.85;;
56291;SDS011;54008;53.606;9.462;2022-09-09T03:39:40;36.08;;;21.63;;
56291;SDS011;54008;53.606;9.462;2022-09-09T03:42:05;36.97;;;21.92;;
56291;SDS011;54008;53.606;9.462;2022-09-09T03:44:31;35.33;;;21.73;;
56291;SDS011;54008;53.606;9.462;2022-09-09T03:46:56;30.15;;;20.73;;
56291;SDS011;54008;53.606;9.462;2022-09-09T03:49:21;37.20;;;21.30;;
56291;SDS011;54008;53.606;9.462;2022-09-09T03:51:47;29.00;;;19.55;;
56291;SDS011;54008;53.606;9.462;2022-09-09T03:54:13;32.67;;;19.92;;
56291;SDS011;54008;53.606;9.462;2022-09-09T03:56:38;41.50;;;22.33;;
56291;SDS011;54008;53.606;9.462;2022-09-09T03:59:04;41.00;;;23.20;;
56291;SDS011;54008;53.606;9.462;2022-09-09T04:01:29;39.50;;;21.80;;
56291;SDS011;54008;53.606;9.462;2022-09-09T04:03:55;37.08;;;20.88;;
56291;SDS011;54008;53.606;9.462;2022-09-09T04:06:23;38.75;;;21.42;;
56291;SDS011;54008;53.606;9.462;2022-09-09T04:08:48;37.33;;;22.25;;
56291;SDS011;54008;53.606;9.462;2022-09-09T04:11:14;33.90;;;20.60;;
56291;SDS011;54008;53.606;9.462;2022-09-09T04:13:40;34.25;;;21.85;;
56291;SDS011;54008;53.606;9.462;2022-09-09T04:16:07;32.33;;;20.35;;
56291;SDS011;54008;53.606;9.462;2022-09-09T04:18:35;44.28;;;22.23;;
56291;SDS011;54008;53.606;9.462;2022-09-09T04:21:00;37.55;;;21.35;;
56291;SDS011;54008;53.606;9.462;2022-09-09T04:23:27;35.22;;;21.58;;
56291;SDS011;54008;53.606;9.462;2022-09-09T04:25:56;34.83;;;20.33;;
56291;SDS011;54008;53.606;9.462;2022-09-09T04:28:23;30.83;;;20.02;;
56291;SDS011;54008;53.606;9.462;2022-09-09T04:30:50;33.97;;;20.92;;
56291;SDS011;54008;53.606;9.462;2022-09-09T04:33:16;39.67;;;22.05;;
56291;SDS011;54008;53.606;9.462;2022-09-09T04:35:46;43.83;;;23.15;;
56291;SDS011;54008;53.606;9.462;2022-09-09T04:38:12;43.03;;;23.10;;
56291;SDS011;54008;53.606;9.462;2022-09-09T04:40:38;39.50;;;22.45;;
56291;SDS011;54008;53.606;9.462;2022-09-09T04:43:08;40.35;;;21.75;;
56291;SDS011;54008;53.606;9.462;2022-09-09T04:45:33;48.55;;;23.73;;
56291;SDS011;54008;53.606;9.462;2022-09-09T04:47:59;39.07;;;23.20;;
56291;SDS011;54008;53.606;9.462;2022-09-09T04:50:24;43.37;;;23.77;;
56291;SDS011;54008;53.606;9.462;2022-09-09T04:52:49;41.53;;;23.10;;
56291;SDS011;54008;53.606;9.462;2022-09-09T04:55:15;44.75;;;23.52;;
56291;SDS011;54008;53.606;9.462;2022-09-09T04:57:40;43.55;;;23.05;;
56291;SDS011;54008;53.606;9.462;2022-09-09T05:00:06;43.97;;;23.02;;
56291;SDS011;54008;53.606;9.462;2022-09-09T05:02:32;58.55;;;25.38;;
56291;SDS011;54008;53.606;9.462;2022-09-09T05:04:58;35.70;;;21.63;;
56291;SDS011;54008;53.606;9.462;2022-09-09T05:07:24;56.55;;;24.52;;
56291;SDS011;54008;53.606;9.462;2022-09-09T05:09:51;37.67;;;20.98;;
56291;SDS011;54008;53.606;9.462;2022-09-09T05:12:16;36.78;;;21.67;;
56291;SDS011;54008;53.606;9.462;2022-09-09T05:14:42;38.20;;;21.08;;
56291;SDS011;54008;53.606;9.462;2022-09-09T05:17:09;32.05;;;21.23;;
56291;SDS011;54008;53.606;9.462;2022-09-09T05:19:35;36.72;;;22.45;;
56291;SDS011;54008;53.606;9.462;2022-09-09T05:22:00;34.92;;;20.85;;
56291;SDS011;54008;53.606;9.462;2022-09-09T05:24:26;35.28;;;20.98;;
56291;SDS011;54008;53.606;9.462;2022-09-09T05:26:51;47.38;;;20.88;;
56291;SDS011;54008;53.606;9.462;2022-09-09T05:29:17;38.50;;;22.07;;
56291;SDS011;54008;53.606;9.462;2022-09-09T05:31:44;32.70;;;20.90;;
56291;SDS011;54008;53.606;9.462;2022-09-09T05:34:10;34.53;;;20.73;;
56291;SDS011;54008;53.606;9.462;2022-09-09T05:36:36;36.53;;;21.20;;
56291;SDS011;54008;53.606;9.462;2022-09-09T05:39:01;33.22;;;20.92;;
56291;SDS011;54008;53.606;9.462;2022-09-09T05:41:27;37.72;;;20.70;;
56291;SDS011;54008;53.606;9.462;2022-09-09T05:43:53;32.72;;;18.85;;
56291;SDS011;54008;53.606;9.462;2022-09-09T05:46:20;33.72;;;19.83;;
56291;SDS011;54008;53.606;9.462;2022-09-09T05:48:47;28.63;;;18.15;;
56291;SDS011;54008;53.606;9.462;2022-09-09T05:51:16;28.10;;;18.02;;
56291;SDS011;54008;53.606;9.462;2022-09-09T05:53:47;27.23;;;17.25;;
56291;SDS011;54008;53.606;9.462;2022-09-09T05:56:17;27.23;;;17.15;;
56291;SDS011;54008;53.606;9.462;2022-09-09T05:58:44;29.77;;;17.10;;
56291;SDS011;54008;53.606;9.462;2022-09-09T06:01:22;25.70;;;16.48;;
56291;SDS011;54008;53.606;9.462;2022-09-09T06:03:49;24.63;;;15.88;;
56291;SDS011;54008;53.606;9.462;2022-09-09T06:06:17;25.27;;;16.25;;
56291;SDS011;54008;53.606;9.462;2022-09-09T06:08:47;24.08;;;14.63;;
56291;SDS011;54008;53.606;9.462;2022-09-09T06:11:23;26.42;;;16.58;;
56291;SDS011;54008;53.606;9.462;2022-09-09T06:13:50;22.63;;;15.80;;
56291;SDS011;54008;53.606;9.462;2022-09-09T06:16:20;22.60;;;14.75;;
56291;SDS011;54008;53.606;9.462;2022-09-09T06:18:48;24.27;;;14.52;;
56291;SDS011;54008;53.606;9.462;2022-09-09T06:21:16;25.13;;;15.30;;
56291;SDS011;54008;53.606;9.462;2022-09-09T06:23:47;27.48;;;15.75;;
56291;SDS011;54008;53.606;9.462;2022-09-09T06:26:14;23.13;;;15.35;;
56291;SDS011;54008;53.606;9.462;2022-09-09T06:28:42;26.05;;;14.50;;
56291;SDS011;54008;53.606;9.462;2022-09-09T06:31:09;24.70;;;14.20;;
56291;SDS011;54008;53.606;9.462;2022-09-09T06:33:37;20.63;;;13.23;;
56291;SDS011;54008;53.606;9.462;2022-09-09T06:36:10;23.50;;;13.50;;
56291;SDS011;54008;53.606;9.462;2022-09-09T06:38:37;23.55;;;13.98;;
56291;SDS011;54008;53.606;9.462;2022-09-09T06:41:03;20.55;;;14.48;;
56291;SDS011;54008;53.606;9.462;2022-09-09T06:43:30;18.55;;;13.27;;
56291;SDS011;54008;53.606;9.462;2022-09-09T06:45:57;22.95;;;13.93;;
56291;SDS011;54008;53.606;9.462;2022-09-09T06:48:23;25.30;;;14.10;;
56291;SDS011;54008;53.606;9.462;2022-09-09T06:50:51;19.52;;;12.82;;
56291;SDS011;54008;53.606;9.462;2022-09-09T06:53:33;21.23;;;13.10;;
56291;SDS011;54008;53.606;9.462;2022-09-09T06:58:48;23.55;;;12.60;;
56291;SDS011;54008;53.606;9.462;2022-09-09T07:01:15;20.42;;;12.52;;
56291;SDS011;54008;53.606;9.462;2022-09-09T07:03:42;21.23;;;13.05;;
56291;SDS011;54008;53.606;9.462;2022-09-09T07:06:21;24.50;;;12.82;;
56291;SDS011;54008;53.606;9.462;2022-09-09T07:08:54;18.17;;;12.57;;
56291;SDS011;54008;53.606;9.462;2022-09-09T07:13:51;21.63;;;12.63;;
56291;SDS011;54008;53.606;9.462;2022-09-09T07:16:18;16.65;;;12.52;;
56291;SDS011;54008;53.606;9.462;2022-09-09T07:18:45;20.98;;;13.50;;
56291;SDS011;54008;53.606;9.462;2022-09-09T07:21:11;17.80;;;12.25;;
56291;SDS011;54008;53.606;9.462;2022-09-09T07:23:38;17.35;;;11.60;;
56291;SDS011;54008;53.606;9.462;2022-09-09T07:26:11;19.30;;;12.95;;
56291;SDS011;54008;53.606;9.462;2022-09-09T07:28:40;17.85;;;12.55;;
56291;SDS011;54008;53.606;9.462;2022-09-09T07:31:06;18.65;;;11.68;;
56291;SDS011;54008;53.606;9.462;2022-09-09T07:33:38;15.30;;;11.30;;
56291;SDS011;54008;53.606;9.462;2022-09-09T07:36:07;17.42;;;11.20;;
56291;SDS011;54008;53.606;9.462;2022-09-09T07:38:39;18.20;;;11.43;;
56291;SDS011;54008;53.606;9.462;2022-09-09T07:41:06;18.40;;;11.98;;
56291;SDS011;54008;53.606;9.462;2022-09-09T07:43:36;19.38;;;11.10;;
56291;SDS011;54008;53.606;9.462;2022-09-09T07:46:02;17.02;;;11.18;;
56291;SDS011;54008;53.606;9.462;2022-09-09T07:48:27;16.92;;;10.95;;
56291;SDS011;54008;53.606;9.462;2022-09-09T07:51:02;15.85;;;9.98;;
56291;SDS011;54008;53.606;9.462;2022-09-09T07:53:29;11.90;;;9.20;;
56291;SDS011;54008;53.606;9.462;2022-09-09T07:56:01;17.15;;;8.98;;
56291;SDS011;54008;53.606;9.462;2022-09-09T07:58:28;15.30;;;10.35;;
56291;SDS011;54008;53.606;9.462;2022-09-09T08:00:53;13.75;;;9.02;;
56291;SDS011;54008;53.606;9.462;2022-09-09T08:03:18;12.32;;;9.45;;
56291;SDS011;54008;53.606;9.462;2022-09-09T08:05:45;13.43;;;9.82;;
56291;SDS011;54008;53.606;9.462;2022-09-09T08:08:10;12.93;;;8.95;;
56291;SDS011;54008;53.606;9.462;2022-09-09T08:10:35;15.03;;;8.77;;
56291;SDS011;54008;53.606;9.462;2022-09-09T08:13:01;17.58;;;10.25;;
56291;SDS011;54008;53.606;9.462;2022-09-09T08:15:26;17.00;;;10.73;;
56291;SDS011;54008;53.606;9.462;2022-09-09T08:17:52;12.00;;;9.00;;
56291;SDS011;54008;53.606;9.462;2022-09-09T08:20:17;18.00;;;9.63;;
56291;SDS011;54008;53.606;9.462;2022-09-09T08:22:43;14.55;;;8.90;;
56291;SDS011;54008;53.606;9.462;2022-09-09T08:25:08;13.27;;;8.75;;
56291;SDS011;54008;53.606;9.462;2022-09-09T08:27:35;13.75;;;8.68;;
56291;SDS011;54008;53.606;9.462;2022-09-09T08:30:00;15.00;;;8.68;;
56291;SDS011;54008;53.606;9.462;2022-09-09T08:32:25;15.00;;;8.87;;
56291;SDS011;54008;53.606;9.462;2022-09-09T08:34:51;13.73;;;8.88;;
56291;SDS011;54008;53.606;9.462;2022-09-09T08:37:16;14.07;;;8.50;;
56291;SDS011;54008;53.606;9.462;2022-09-09T08:39:41;15.05;;;8.35;;
56291;SDS011;54008;53.606;9.462;2022-09-09T08:42:13;14.83;;;8.17;;
56291;SDS011;54008;53.606;9.462;2022-09-09T08:50:30;10.27;;;6.88;;
56291;SDS011;54008;53.606;9.462;2022-09-09T08:55:58;10.52;;;7.15;;
56291;SDS011;54008;53.606;9.462;2022-09-09T08:58:27;11.88;;;6.10;;
56291;SDS011;54008;53.606;9.462;2022-09-09T09:11:39;9.70;;;4.95;;
56291;SDS011;54008;53.606;9.462;2022-09-09T09:14:12;5.68;;;4.43;;
56291;SDS011;54008;53.606;9.462;2022-09-09T09:16:50;6.43;;;3.80;;
56291;SDS011;54008;53.606;9.462;2022-09-09T09:19:24;5.93;;;3.70;;
56291;SDS011;54008;53.606;9.462;2022-09-09T09:24:48;5.00;;;2.97;;
56291;SDS011;54008;53.606;9.462;2022-09-09T09:29:56;9.57;;;3.25;;
56291;SDS011;54008;53.606;9.462;2022-09-09T09:32:23;4.75;;;2.55;;
56291;SDS011;54008;53.606;9.462;2022-09-09T09:34:51;6.10;;;2.95;;
56291;SDS011;54008;53.606;9.462;2022-09-09T09:37:26;6.20;;;2.85;;
56291;SDS011;54008;53.606;9.462;2022-09-09T09:39:54;6.03;;;2.72;;
56291;SDS011;54008;53.606;9.462;2022-09-09T09:42:19;5.03;;;2.75;;
56291;SDS011;54008;53.606;9.462;2022-09-09T09:44:45;5.45;;;2.60;;
56291;SDS011;54008;53.606;9.462;2022-09-09T09:47:11;3.33;;;2.10;;
56291;SDS011;54008;53.606;9.462;2022-09-09T09:49:38;3.63;;;2.13;;
56291;SDS011;54008;53.606;9.462;2022-09-09T09:52:05;3.92;;;2.20;;
56291;SDS011;54008;53.606;9.462;2022-09-09T09:54:38;6.82;;;2.90;;
56291;SDS011;54008;53.606;9.462;2022-09-09T09:57:10;4.07;;;2.53;;
56291;SDS011;54008;53.606;9.462;2022-09-09T09:59:37;6.50;;;2.92;;
56291;SDS011;54008;53.606;9.462;2022-09-09T10:02:14;5.65;;;2.90;;
56291;SDS011;54008;53.606;9.462;2022-09-09T10:04:40;5.75;;;2.78;;
56291;SDS011;54008;53.606;9.462;2022-09-09T10:07:13;5.85;;;2.40;;
56291;SDS011;54008;53.606;9.462;2022-09-09T10:09:43;3.63;;;2.50;;
56291;SDS011;54008;53.606;9.462;2022-09-09T10:12:14;4.40;;;2.42;;
56291;SDS011;54008;53.606;9.462;2022-09-09T10:14:54;4.07;;;2.20;;
56291;SDS011;54008;53.606;9.462;2022-09-09T10:17:49;5.03;;;2.33;;
56291;SDS011;54008;53.606;9.462;2022-09-09T10:20:24;6.18;;;2.00;;
56291;SDS011;54008;53.606;9.462;2022-09-09T10:23:36;4.95;;;1.80;;
56291;SDS011;54008;53.606;9.462;2022-09-09T10:34:33;3.17;;;1.42;;
56291;SDS011;54008;53.606;9.462;2022-09-09T10:37:00;2.53;;;1.67;;
56291;SDS011;54008;53.606;9.462;2022-09-09T10:39:37;3.28;;;1.30;;
56291;SDS011;54008;53.606;9.462;2022-09-09T10:42:09;3.03;;;1.25;;
56291;SDS011;54008;53.606;9.462;2022-09-09T10:47:17;6.15;;;1.48;;
56291;SDS011;54008;53.606;9.462;2022-09-09T10:50:03;3.60;;;1.58;;
56291;SDS011;54008;53.606;9.462;2022-09-09T10:55:37;3.35;;;1.63;;
56291;SDS011;54008;53.606;9.462;2022-09-09T10:58:10;19.40;;;2.55;;
56291;SDS011;54008;53.606;9.462;2022-09-09T11:00:42;4.20;;;2.20;;
56291;SDS011;54008;53.606;9.462;2022-09-09T11:06:18;2.40;;;2.20;;
56291;SDS011;54008;53.606;9.462;2022-09-09T11:08:39;4.22;;;3.00;;
56291;SDS011;54008;53.606;9.462;2022-09-09T11:11:19;7.28;;;3.38;;
56291;SDS011;54008;53.606;9.462;2022-09-09T11:21:55;5.93;;;3.90;;
56291;SDS011;54008;53.606;9.462;2022-09-09T11:27:11;3.92;;;2.80;;
56291;SDS011;54008;53.606;9.462;2022-09-09T11:29:56;4.45;;;3.00;;
56291;SDS011;54008;53.606;9.462;2022-09-09T11:38:21;10.40;;;4.43;;
56291;SDS011;54008;53.606;9.462;2022-09-09T11:41:03;6.33;;;3.70;;
56291;SDS011;54008;53.606;9.462;2022-09-09T11:46:07;4.65;;;2.80;;
56291;SDS011;54008;53.606;9.462;2022-09-09T11:48:36;4.38;;;2.50;;
56291;SDS011;54008;53.606;9.462;2022-09-09T11:51:10;3.92;;;2.22;;
56291;SDS011;54008;53.606;9.462;2022-09-09T11:53:54;7.25;;;2.60;;
56291;SDS011;54008;53.606;9.462;2022-09-09T11:56:26;4.53;;;2.10;;
56291;SDS011;54008;53.606;9.462;2022-09-09T11:59:21;3.38;;;1.77;;
56291;SDS011;54008;53.606;9.462;2022-09-09T12:01:59;5.70;;;2.30;;
56291;SDS011;54008;53.606;9.462;2022-09-09T12:07:05;6.50;;;2.40;;
56291;SDS011;54008;53.606;9.462;2022-09-09T12:17:44;5.90;;;2.80;;
56291;SDS011;54008;53.606;9.462;2022-09-09T12:20:16;5.85;;;2.33;;
56291;SDS011;54008;53.606;9.462;2022-09-09T12:22:53;3.78;;;1.92;;
56291;SDS011;54008;53.606;9.462;2022-09-09T12:33:47;4.97;;;2.45;;
56291;SDS011;54008;53.606;9.462;2022-09-09T12:36:20;4.40;;;2.80;;
56291;SDS011;54008;53.606;9.462;2022-09-09T12:38:49;4.88;;;2.10;;
56291;SDS011;54008;53.606;9.462;2022-09-09T12:41:20;3.55;;;2.13;;
56291;SDS011;54008;53.606;9.462;2022-09-09T12:43:48;6.35;;;2.33;;
56291;SDS011;54008;53.606;9.462;2022-09-09T12:46:36;5.93;;;2.55;;
56291;SDS011;54008;53.606;9.462;2022-09-09T12:49:03;7.13;;;2.70;;
56291;SDS011;54008;53.606;9.462;2022-09-09T12:51:30;7.05;;;2.80;;
56291;SDS011;54008;53.606;9.462;2022-09-09T12:53:58;4.40;;;1.90;;
56291;SDS011;54008;53.606;9.462;2022-09-09T12:56:29;4.72;;;1.90;;
56291;SDS011;54008;53.606;9.462;2022-09-09T12:58:56;5.47;;;2.13;;
56291;SDS011;54008;53.606;9.462;2022-09-09T13:01:27;9.85;;;2.58;;
56291;SDS011;54008;53.606;9.462;2022-09-09T13:03:55;8.70;;;1.73;;
56291;SDS011;54008;53.606;9.462;2022-09-09T13:06:28;4.50;;;1.70;;
56291;SDS011;54008;53.606;9.462;2022-09-09T13:08:59;3.05;;;1.80;;
56291;SDS011;54008;53.606;9.462;2022-09-09T13:11:28;7.07;;;2.38;;
56291;SDS011;54008;53.606;9.462;2022-09-09T13:14:12;5.38;;;2.40;;
56291;SDS011;54008;53.606;9.462;2022-09-09T13:16:57;4.57;;;2.17;;
56291;SDS011;54008;53.606;9.462;2022-09-09T13:19:38;5.72;;;2.30;;
56291;SDS011;54008;53.606;9.462;2022-09-09T13:26:03;4.45;;;1.92;;
56291;SDS011;54008;53.606;9.462;2022-09-09T14:00:17;5.47;;;1.70;;
56291;SDS011;54008;53.606;9.462;2022-09-09T14:02:42;4.72;;;1.75;;
56291;SDS011;54008;53.606;9.462;2022-09-09T14:05:09;4.78;;;1.95;;
56291;SDS011;54008;53.606;9.462;2022-09-09T14:07:36;3.08;;;1.52;;
56291;SDS011;54008;53.606;9.462;2022-09-09T14:10:03;3.80;;;1.92;;
56291;SDS011;54008;53.606;9.462;2022-09-09T14:12:29;4.07;;;1.65;;
56291;SDS011;54008;53.606;9.462;2022-09-09T14:14:55;4.90;;;1.90;;
56291;SDS011;54008;53.606;9.462;2022-09-09T14:17:23;8.77;;;1.50;;
56291;SDS011;54008;53.606;9.462;2022-09-09T14:19:50;6.03;;;1.83;;
56291;SDS011;54008;53.606;9.462;2022-09-09T14:22:15;5.47;;;1.83;;
56291;SDS011;54008;53.606;9.462;2022-09-09T14:24:40;8.68;;;1.77;;
56291;SDS011;54008;53.606;9.462;2022-09-09T14:27:06;3.58;;;1.40;;
56291;SDS011;54008;53.606;9.462;2022-09-09T14:29:31;4.75;;;1.25;;
56291;SDS011;54008;53.606;9.462;2022-09-09T14:31:58;3.83;;;1.45;;
56291;SDS011;54008;53.606;9.462;2022-09-09T14:34:26;11.73;;;2.20;;
56291;SDS011;54008;53.606;9.462;2022-09-09T14:36:51;5.97;;;2.15;;
56291;SDS011;54008;53.606;9.462;2022-09-09T14:39:16;4.45;;;1.50;;
56291;SDS011;54008;53.606;9.462;2022-09-09T14:41:42;5.60;;;1.50;;
56291;SDS011;54008;53.606;9.462;2022-09-09T14:44:07;4.93;;;1.30;;
56291;SDS011;54008;53.606;9.462;2022-09-09T14:46:33;3.97;;;1.45;;
56291;SDS011;54008;53.606;9.462;2022-09-09T14:48:59;4.00;;;1.40;;
56291;SDS011;54008;53.606;9.462;2022-09-09T14:51:24;2.08;;;1.20;;
56291;SDS011;54008;53.606;9.462;2022-09-09T14:53:53;3.55;;;0.93;;
56291;SDS011;54008;53.606;9.462;2022-09-09T14:56:22;2.22;;;1.00;;
56291;SDS011;54008;53.606;9.462;2022-09-09T14:58:49;3.60;;;0.90;;
56291;SDS011;54008;53.606;9.462;2022-09-09T15:01:16;2.38;;;0.98;;
56291;SDS011;54008;53.606;9.462;2022-09-09T15:03:48;2.33;;;0.90;;
56291;SDS011;54008;53.606;9.462;2022-09-09T15:06:17;2.25;;;0.90;;
56291;SDS011;54008;53.606;9.462;2022-09-09T15:08:44;1.40;;;0.52;;
56291;SDS011;54008;53.606;9.462;2022-09-09T15:11:11;2.72;;;0.80;;
56291;SDS011;54008;53.606;9.462;2022-09-09T15:13:38;1.35;;;0.77;;
56291;SDS011;54008;53.606;9.462;2022-09-09T15:16:09;1.55;;;0.73;;
56291;SDS011;54008;53.606;9.462;2022-09-09T15:18:39;1.33;;;0.65;;
56291;SDS011;54008;53.606;9.462;2022-09-09T15:21:11;2.72;;;0.60;;
56291;SDS011;54008;53.606;9.462;2022-09-09T15:23:37;1.58;;;0.70;;
56291;SDS011;54008;53.606;9.462;2022-09-09T15:26:03;4.88;;;1.17;;
56291;SDS011;54008;53.606;9.462;2022-09-09T15:28:29;8.88;;;1.75;;
56291;SDS011;54008;53.606;9.462;2022-09-09T15:30:57;2.90;;;1.08;;
56291;SDS011;54008;53.606;9.462;2022-09-09T15:33:24;3.53;;;0.98;;
56291;SDS011;54008;53.606;9.462;2022-09-09T15:35:50;4.75;;;1.65;;
56291;SDS011;54008;53.606;9.462;2022-09-09T15:38:16;3.75;;;1.38;;
56291;SDS011;54008;53.606;9.462;2022-09-09T15:40:42;2.72;;;1.35;;
56291;SDS011;54008;53.606;9.462;2022-09-09T15:43:08;3.85;;;1.60;;
56291;SDS011;54008;53.606;9.462;2022-09-09T15:45:38;4.65;;;1.45;;
56291;SDS011;54008;53.606;9.462;2022-09-09T15:48:03;3.67;;;1.30;;
56291;SDS011;54008;53.606;9.462;2022-09-09T15:50:29;3.47;;;1.52;;
56291;SDS011;54008;53.606;9.462;2022-09-09T15:52:58;3.83;;;1.45;;
56291;SDS011;54008;53.606;9.462;2022-09-09T15:55:24;4.47;;;1.92;;
56291;SDS011;54008;53.606;9.462;2022-09-09T15:57:50;4.55;;;1.50;;
56291;SDS011;54008;53.606;9.462;2022-09-09T16:00:17;5.45;;;1.85;;
56291;SDS011;54008;53.606;9.462;2022-09-09T16:02:43;4.05;;;1.55;;
56291;SDS011;54008;53.606;9.462;2022-09-09T16:05:09;4.88;;;1.75;;
56291;SDS011;54008;53.606;9.462;2022-09-09T16:07:34;5.63;;;2.15;;
56291;SDS011;54008;53.606;9.462;2022-09-09T16:10:00;6.28;;;2.75;;
56291;SDS011;54008;53.606;9.462;2022-09-09T16:12:26;8.85;;;2.10;;
56291;SDS011;54008;53.606;9.462;2022-09-09T16:14:51;3.97;;;1.70;;
56291;SDS011;54008;53.606;9.462;2022-09-09T16:17:17;5.00;;;1.48;;
56291;SDS011;54008;53.606;9.462;2022-09-09T16:19:44;5.78;;;2.35;;
56291;SDS011;54008;53.606;9.462;2022-09-09T16:22:10;5.18;;;2.63;;
56291;SDS011;54008;53.606;9.462;2022-09-09T16:24:36;20.15;;;7.00;;
56291;SDS011;54008;53.606;9.462;2022-09-09T16:27:02;57.28;;;17.30;;
56291;SDS011;54008;53.606;9.462;2022-09-09T16:29:27;7.43;;;3.10;;
56291;SDS011;54008;53.606;9.462;2022-09-09T16:31:53;4.60;;;1.65;;
56291;SDS011;54008;53.606;9.462;2022-09-09T16:34:19;3.10;;;1.40;;
56291;SDS011;54008;53.606;9.462;2022-09-09T16:36:45;1.88;;;1.42;;
56291;SDS011;54008;53.606;9.462;2022-09-09T16:39:31;5.18;;;1.40;;
56291;SDS011;54008;53.606;9.462;2022-09-09T16:41:59;4.25;;;1.73;;
56291;SDS011;54008;53.606;9.462;2022-09-09T16:44:25;3.85;;;1.50;;
56291;SDS011;54008;53.606;9.462;2022-09-09T16:46:53;4.00;;;2.10;;
56291;SDS011;54008;53.606;9.462;2022-09-09T16:49:19;4.75;;;2.13;;
56291;SDS011;54008;53.606;9.462;2022-09-09T16:51:46;6.07;;;3.00;;
56291;SDS011;54008;53.606;9.462;2022-09-09T16:54:13;6.53;;;3.00;;
56291;SDS011;54008;53.606;9.462;2022-09-09T16:56:42;4.88;;;2.70;;
56291;SDS011;54008;53.606;9.462;2022-09-09T16:59:09;3.47;;;2.30;;
56291;SDS011;54008;53.606;9.462;2022-09-09T17:01:37;5.50;;;2.50;;
56291;SDS011;54008;53.606;9.462;2022-09-09T17:04:06;5.15;;;2.50;;
56291;SDS011;54008;53.606;9.462;2022-09-09T17:06:33;6.05;;;2.60;;
56291;SDS011;54008;53.606;9.462;2022-09-09T17:09:02;7.20;;;2.33;;
56291;SDS011;54008;53.606;9.462;2022-09-09T17:11:30;3.85;;;2.10;;
56291;SDS011;54008;53.606;9.462;2022-09-09T17:13:56;3.92;;;2.35;;
56291;SDS011;54008;53.606;9.462;2022-09-09T17:16:23;5.28;;;2.53;;
56291;SDS011;54008;53.606;9.462;2022-09-09T17:18:50;4.07;;;2.50;;
56291;SDS011;54008;53.606;9.462;2022-09-09T17:21:17;4.90;;;2.30;;
56291;SDS011;54008;53.606;9.462;2022-09-09T17:23:44;6.18;;;2.15;;
56291;SDS011;54008;53.606;9.462;2022-09-09T17:26:11;4.88;;;2.30;;
56291;SDS011;54008;53.606;9.462;2022-09-09T17:28:37;4.93;;;2.20;;